createdAt,value
2022-11-17T00:01:54.507Z,897.55
2022-11-17T00:04:21.369Z,893.60
2022-11-17T00:06:48.322Z,888.75
2022-11-17T00:09:17.295Z,893.92
2022-11-17T00:12:03.616Z,896.55
2022-11-17T00:14:33.438Z,893.45
2022-11-17T00:17:01.307Z,888.17
2022-11-17T00:19:46.530Z,905.20
2022-11-17T00:22:13.317Z,898.38
2022-11-17T00:24:39.967Z,899.88
2022-11-17T00:27:06.910Z,901.90
2022-11-17T00:29:38.545Z,899.27
2022-11-17T00:32:25.332Z,897.20
2022-11-17T00:34:52.042Z,898.00
2022-11-17T00:37:19.009Z,899.85
2022-11-17T00:39:45.757Z,899.50
2022-11-17T00:42:12.484Z,901.08
2022-11-17T00:44:39.259Z,908.80
2022-11-17T00:47:05.985Z,911.78
2022-11-17T00:49:32.768Z,910.38
2022-11-17T00:52:00.570Z,898.92
2022-11-17T00:54:27.377Z,906.15
2022-11-17T00:56:54.317Z,905.55
2022-11-17T00:59:21.268Z,905.08
2022-11-17T01:01:47.995Z,913.40
2022-11-17T01:04:15.746Z,908.83
2022-11-17T01:06:48.058Z,915.97
2022-11-17T01:09:22.145Z,914.28
2022-11-17T01:11:50.945Z,913.38
2022-11-17T01:14:27.085Z,913.15
2022-11-17T01:16:54.618Z,916.60
2022-11-17T01:19:22.696Z,911.42
2022-11-17T01:21:49.457Z,918.33
2022-11-17T01:24:17.316Z,914.53
2022-11-17T01:26:45.353Z,915.70
2022-11-17T01:29:14.930Z,922.75
2022-11-17T01:31:46.026Z,920.07
2022-11-17T01:34:12.911Z,921.55
2022-11-17T01:37:01.050Z,922.85
2022-11-17T01:39:29.329Z,914.78
2022-11-17T01:41:56.614Z,917.50
2022-11-17T01:44:41.780Z,919.30
2022-11-17T01:47:24.626Z,917.55
2022-11-17T01:49:58.127Z,924.57
2022-11-17T01:52:25.233Z,924.58
2022-11-17T01:54:55.396Z,916.55
2022-11-17T01:57:29.191Z,912.13
2022-11-17T02:00:05.356Z,924.13
2022-11-17T02:02:34.247Z,914.60
2022-11-17T02:05:03.765Z,917.97
2022-11-17T02:07:34.259Z,924.38
2022-11-17T02:10:01.646Z,922.75
2022-11-17T02:12:30.792Z,922.65
2022-11-17T02:14:57.668Z,915.97
2022-11-17T02:17:40.458Z,913.00
2022-11-17T02:20:46.191Z,919.07
2022-11-17T02:23:39.216Z,924.28
2022-11-17T02:26:18.344Z,922.50
2022-11-17T02:29:14.366Z,920.53
2022-11-17T02:32:13.239Z,921.28
2022-11-17T02:34:39.890Z,916.03
2022-11-17T02:37:16.997Z,915.92
2022-11-17T02:40:24.144Z,920.33
2022-11-17T02:43:22.978Z,919.00
2022-11-17T02:46:05.944Z,919.87
2022-11-17T02:48:53.207Z,938.03
2022-11-17T02:51:22.967Z,902.70
2022-11-17T02:53:56.268Z,906.15
2022-11-17T02:56:23.228Z,907.50
2022-11-17T02:58:54.674Z,902.77
2022-11-17T03:01:33.305Z,907.30
2022-11-17T03:04:23.769Z,904.05
2022-11-17T03:07:28.745Z,905.25
2022-11-17T03:10:19.415Z,912.33
2022-11-17T03:13:09.505Z,907.87
2022-11-17T03:15:55.251Z,912.58
2022-11-17T03:18:36.215Z,904.70
2022-11-17T03:21:29.955Z,918.43
2022-11-17T03:24:13.883Z,910.53
2022-11-17T03:26:45.801Z,907.75
2022-11-17T03:29:16.630Z,912.33
2022-11-17T03:31:47.334Z,906.15
2022-11-17T03:34:18.225Z,903.27
2022-11-17T03:36:51.614Z,898.95
2022-11-17T03:39:34.637Z,907.08
2022-11-17T03:42:14.368Z,904.60
2022-11-17T03:44:45.578Z,905.75
2022-11-17T03:47:15.566Z,898.40
2022-11-17T03:50:07.852Z,908.75
2022-11-17T03:52:36.492Z,906.53
2022-11-17T03:55:03.977Z,895.95
2022-11-17T03:57:40.529Z,896.90
2022-11-17T04:00:16.614Z,902.33
2022-11-17T04:02:48.686Z,905.38
2022-11-17T04:05:17.539Z,899.40
2022-11-17T04:07:46.627Z,901.50
2022-11-17T04:10:21.326Z,900.60
2022-11-17T04:13:07.542Z,894.75
2022-11-17T04:15:53.249Z,899.22
2022-11-17T04:18:20.638Z,893.50
2022-11-17T04:20:55.233Z,893.65
2022-11-17T04:23:23.519Z,895.55
2022-11-17T04:26:11.189Z,892.92
2022-11-17T04:28:41.975Z,898.90
2022-11-17T04:31:22.742Z,893.35
2022-11-17T04:34:01.610Z,897.28
2022-11-17T04:36:30.521Z,901.40
2022-11-17T04:38:59.347Z,892.55
2022-11-17T04:41:45.586Z,894.45
2022-11-17T04:44:14.057Z,902.42
2022-11-17T04:46:44.241Z,888.20
2022-11-17T04:49:12.354Z,890.42
2022-11-17T04:51:39.514Z,900.97
2022-11-17T04:54:08.590Z,894.67
2022-11-17T04:56:35.819Z,897.87
2022-11-17T04:59:03.004Z,914.77
2022-11-17T05:01:30.369Z,903.73
2022-11-17T05:04:05.419Z,894.03
2022-11-17T05:06:34.703Z,891.50
2022-11-17T05:09:04.339Z,892.13
2022-11-17T05:11:49.935Z,890.53
2022-11-17T05:14:19.350Z,890.42
2022-11-17T05:17:09.437Z,888.93
2022-11-17T05:19:37.437Z,886.83
2022-11-17T05:22:24.968Z,887.70
2022-11-17T05:24:52.591Z,883.83
2022-11-17T05:27:20.263Z,882.08
2022-11-17T05:29:47.141Z,881.85
2022-11-17T05:32:13.997Z,878.78
2022-11-17T05:34:40.824Z,879.73
2022-11-17T05:37:07.550Z,881.35
2022-11-17T05:39:34.377Z,885.95
2022-11-17T05:42:01.112Z,882.67
2022-11-17T05:44:27.825Z,882.88
2022-11-17T05:46:54.563Z,887.72
2022-11-17T05:49:21.504Z,891.88
2022-11-17T05:51:52.482Z,886.20
2022-11-17T05:54:20.033Z,887.53
2022-11-17T05:56:57.154Z,887.28
2022-11-17T05:59:37.914Z,881.78
2022-11-17T06:02:16.337Z,886.25
2022-11-17T06:04:43.859Z,901.70
2022-11-17T06:07:11.056Z,901.05
2022-11-17T06:09:41.473Z,896.20
2022-11-17T06:12:08.780Z,902.15
2022-11-17T06:14:39.018Z,898.42
2022-11-17T06:17:13.463Z,886.33
2022-11-17T06:19:46.085Z,885.22
2022-11-17T06:22:13.651Z,882.38
2022-11-17T06:24:44.717Z,882.38
2022-11-17T06:27:15.365Z,885.85
2022-11-17T06:29:44.970Z,886.93
2022-11-17T06:32:17.361Z,891.15
2022-11-17T06:34:51.979Z,888.47
2022-11-17T06:37:21.867Z,881.97
2022-11-17T06:39:48.565Z,883.60
2022-11-17T06:42:15.273Z,883.03
2022-11-17T06:44:42.174Z,887.20
2022-11-17T06:47:08.916Z,887.30
2022-11-17T06:49:35.634Z,890.35
2022-11-17T06:52:02.354Z,879.97
2022-11-17T06:54:29.159Z,880.13
2022-11-17T06:56:57.663Z,875.38
2022-11-17T06:59:24.531Z,874.17
2022-11-17T07:01:51.382Z,876.83
2022-11-17T07:04:18.193Z,879.88
2022-11-17T07:06:44.935Z,877.45
2022-11-17T07:09:11.769Z,877.50
2022-11-17T07:11:38.519Z,880.25
2022-11-17T07:14:05.602Z,879.70
2022-11-17T07:16:32.655Z,879.37
2022-11-17T07:18:59.752Z,880.17
2022-11-17T07:21:26.690Z,883.63
2022-11-17T07:23:53.601Z,883.95
2022-11-17T07:26:20.432Z,885.00
2022-11-17T07:28:47.165Z,877.38
2022-11-17T07:31:14.032Z,875.78
2022-11-17T07:33:40.819Z,880.35
2022-11-17T07:36:10.187Z,884.42
2022-11-17T07:38:39.294Z,888.38
2022-11-17T07:41:07.831Z,888.05
2022-11-17T07:43:35.168Z,883.45
2022-11-17T07:46:06.295Z,885.67
2022-11-17T07:48:33.939Z,878.60
2022-11-17T07:51:03.073Z,884.30
2022-11-17T07:53:33.459Z,879.72
2022-11-17T07:56:05.044Z,877.63
2022-11-17T08:01:58.160Z,899.70
2022-11-17T08:04:24.937Z,893.72
2022-11-17T08:06:52.109Z,893.50
2022-11-17T08:09:19.095Z,889.10
2022-11-17T08:11:45.828Z,888.10
2022-11-17T08:14:12.746Z,894.38
2022-11-17T08:16:39.521Z,893.45
2022-11-17T08:19:06.565Z,886.60
2022-11-17T08:21:36.155Z,893.38
2022-11-17T08:24:03.232Z,891.90
2022-11-17T08:26:30.156Z,888.20
2022-11-17T08:28:59.064Z,883.45
2022-11-17T08:31:26.085Z,881.13
2022-11-17T08:43:01.564Z,890.63
2022-11-17T08:45:54.097Z,883.05
2022-11-17T08:51:11.884Z,887.58
2022-11-17T08:53:38.725Z,886.05
2022-11-17T08:56:11.304Z,881.00
2022-11-17T08:58:44.890Z,885.75
2022-11-17T09:01:15.769Z,882.33
2022-11-17T09:03:44.157Z,885.50
2022-11-17T09:06:12.385Z,894.93
2022-11-17T09:08:47.545Z,890.20
2022-11-17T09:11:16.650Z,886.65
2022-11-17T09:13:45.537Z,887.63
2022-11-17T09:16:13.301Z,900.03
2022-11-17T09:18:41.535Z,891.37
2022-11-17T09:21:11.401Z,886.92
2022-11-17T09:23:38.993Z,887.45
2022-11-17T09:26:08.549Z,879.28
2022-11-17T09:28:36.098Z,883.78
2022-11-17T09:31:11.525Z,883.17
2022-11-17T09:33:39.375Z,879.33
2022-11-17T09:36:09.415Z,878.47
2022-11-17T09:38:37.345Z,878.47
2022-11-17T09:41:35.666Z,872.75
2022-11-17T09:44:27.231Z,878.37
2022-11-17T09:46:59.787Z,883.05
2022-11-17T09:49:57.013Z,874.33
2022-11-17T09:53:04.279Z,866.92
2022-11-17T09:55:36.001Z,877.03
2022-11-17T09:58:08.570Z,874.95
2022-11-17T10:00:39.104Z,875.85
2022-11-17T10:03:19.987Z,883.15
2022-11-17T10:05:47.740Z,885.33
2022-11-17T10:08:22.195Z,890.25
2022-11-17T10:10:51.558Z,895.17
2022-11-17T10:13:33.927Z,892.67
2022-11-17T10:16:06.535Z,884.67
2022-11-17T10:18:38.154Z,877.33
2022-11-17T10:21:06.779Z,889.33
2022-11-17T10:23:46.872Z,890.03
2022-11-17T10:26:15.923Z,885.78
2022-11-17T10:28:42.957Z,888.13
2022-11-17T10:31:15.416Z,886.17
2022-11-17T10:33:49.301Z,886.88
2022-11-17T10:36:28.933Z,932.72
2022-11-17T10:38:58.682Z,907.15
2022-11-17T10:41:45.171Z,914.95
2022-11-17T10:44:30.050Z,914.23
2022-11-17T10:47:02.936Z,910.40
2022-11-17T10:49:34.115Z,905.47
2022-11-17T10:52:16.824Z,894.70
2022-11-17T10:54:44.217Z,889.38
2022-11-17T10:57:21.082Z,893.53
2022-11-17T10:59:58.272Z,889.20
2022-11-17T11:02:36.388Z,889.08
2022-11-17T11:05:10.724Z,895.92
2022-11-17T11:07:38.073Z,901.72
2022-11-17T11:10:18.285Z,895.75
2022-11-17T11:12:56.795Z,899.28
2022-11-17T11:15:25.265Z,894.42
2022-11-17T11:17:52.370Z,889.78
2022-11-17T11:20:24.253Z,893.53
2022-11-17T11:23:09.311Z,894.50
2022-11-17T11:25:51.334Z,898.50
2022-11-17T11:28:24.157Z,888.63
2022-11-17T11:31:11.860Z,886.47
2022-11-17T11:33:50.865Z,885.13
2022-11-17T11:36:31.139Z,884.92
2022-11-17T11:39:13.547Z,887.97
2022-11-17T11:42:07.677Z,886.70
2022-11-17T11:45:01.079Z,884.75
2022-11-17T11:48:00.121Z,878.83
2022-11-17T11:50:42.784Z,878.65
2022-11-17T11:53:32.415Z,880.03
2022-11-17T11:56:10.073Z,887.05
2022-11-17T11:58:44.844Z,887.92
2022-11-17T12:01:12.132Z,876.60
2022-11-17T12:04:14.283Z,888.05
2022-11-17T12:07:00.734Z,870.40
2022-11-17T12:09:58.149Z,860.28
2022-11-17T12:12:37.088Z,858.17
2022-11-17T12:15:20.288Z,868.38
2022-11-17T12:18:01.101Z,871.28
2022-11-17T12:20:31.028Z,876.80
2022-11-17T12:23:16.536Z,874.97
2022-11-17T12:25:54.333Z,878.78
2022-11-17T12:28:39.756Z,889.60
2022-11-17T12:31:10.959Z,880.88
2022-11-17T12:33:53.222Z,921.90
2022-11-17T12:36:32.529Z,884.23
2022-11-17T12:39:01.827Z,885.13
2022-11-17T12:41:47.288Z,891.67
2022-11-17T12:44:32.478Z,890.80
2022-11-17T12:47:22.223Z,884.75
2022-11-17T12:50:13.275Z,880.60
2022-11-17T12:52:55.169Z,883.40
2022-11-17T12:55:25.817Z,880.55
2022-11-17T12:58:17.285Z,880.72
2022-11-17T13:01:11.508Z,887.28
2022-11-17T13:03:49.572Z,884.92
2022-11-17T13:06:34.917Z,886.55
2022-11-17T13:09:06.375Z,881.77
2022-11-17T13:11:34.283Z,888.47
2022-11-17T13:14:15.797Z,880.20
2022-11-17T13:16:49.016Z,882.92
2022-11-17T13:19:33.516Z,886.58
2022-11-17T13:22:04.532Z,889.70
2022-11-17T13:24:37.558Z,886.15
2022-11-17T13:27:07.476Z,885.33
2022-11-17T13:29:34.691Z,885.50
2022-11-17T13:32:16.855Z,885.33
2022-11-17T13:35:23.317Z,888.00
2022-11-17T13:38:15.852Z,883.15
2022-11-17T13:40:43.715Z,883.83
2022-11-17T13:43:15.076Z,885.40
2022-11-17T13:45:43.348Z,885.25
2022-11-17T13:48:32.947Z,885.22
2022-11-17T13:51:27.731Z,887.43
2022-11-17T13:54:12.073Z,890.60
2022-11-17T13:56:40.788Z,882.17
2022-11-17T13:59:28.868Z,885.20
2022-11-17T14:02:20.627Z,881.72
2022-11-17T14:05:09.266Z,883.50
2022-11-17T14:07:38.237Z,878.47
2022-11-17T14:10:33.647Z,879.30
2022-11-17T14:13:05.870Z,879.60
2022-11-17T14:15:36.604Z,883.15
2022-11-17T14:18:18.600Z,879.95
2022-11-17T14:20:45.538Z,878.83
2022-11-17T14:23:12.224Z,886.03
2022-11-17T14:25:39.959Z,887.45
2022-11-17T14:28:17.286Z,885.88
2022-11-17T14:30:47.691Z,888.30
2022-11-17T14:33:14.532Z,885.42
2022-11-17T14:35:41.863Z,888.43
2022-11-17T14:38:18.394Z,891.10
2022-11-17T14:40:45.331Z,904.22
2022-11-17T14:43:12.279Z,897.17
2022-11-17T14:45:39.027Z,895.53
2022-11-17T14:48:06.138Z,893.10
2022-11-17T14:50:33.082Z,899.00
2022-11-17T14:53:00.104Z,902.47
2022-11-17T14:55:27.477Z,897.47
2022-11-17T14:57:54.569Z,896.72
2022-11-17T15:00:21.491Z,890.53
2022-11-17T15:02:48.860Z,891.95
2022-11-17T15:05:15.783Z,894.90
2022-11-17T15:07:43.401Z,886.35
2022-11-17T15:10:10.724Z,886.72
2022-11-17T15:12:37.648Z,893.78
2022-11-17T15:15:05.165Z,904.10
2022-11-17T15:17:32.043Z,927.63
2022-11-17T15:19:58.907Z,893.88
2022-11-17T15:22:25.770Z,897.15
2022-11-17T15:24:52.649Z,903.70
2022-11-17T15:27:19.423Z,903.28
2022-11-17T15:29:46.258Z,903.78
2022-11-17T15:32:13.034Z,897.25
2022-11-17T15:34:39.924Z,899.67
2022-11-17T15:37:07.067Z,898.92
2022-11-17T15:39:33.868Z,894.28
2022-11-17T15:42:00.769Z,891.83
2022-11-17T15:44:27.760Z,894.37
2022-11-17T15:46:54.672Z,894.70
2022-11-17T15:49:21.553Z,884.78
2022-11-17T15:51:48.283Z,894.27
2022-11-17T15:54:20.253Z,885.83
2022-11-17T15:56:47.468Z,888.90
2022-11-17T15:59:14.777Z,891.13
2022-11-17T16:01:42.000Z,895.00
2022-11-17T16:04:11.425Z,889.97
2022-11-17T16:06:40.280Z,892.33
2022-11-17T16:09:07.817Z,894.10
2022-11-17T16:11:35.887Z,892.70
2022-11-17T16:14:03.479Z,890.30
2022-11-17T16:16:33.176Z,899.63
2022-11-17T16:19:00.260Z,896.80
2022-11-17T16:21:27.303Z,896.80
2022-11-17T16:23:56.426Z,893.70
2022-11-17T16:26:25.688Z,896.08
2022-11-17T16:28:57.520Z,895.78
2022-11-17T16:31:26.983Z,902.38
2022-11-17T16:34:01.568Z,893.47
2022-11-17T16:36:37.370Z,897.72
2022-11-17T16:39:07.120Z,894.33
2022-11-17T16:41:36.471Z,900.47
2022-11-17T16:44:14.046Z,897.08
2022-11-17T16:46:48.391Z,894.40
2022-11-17T16:49:17.837Z,902.17
2022-11-17T16:51:50.071Z,894.65
2022-11-17T16:54:18.535Z,896.70
2022-11-17T16:56:45.751Z,895.72
2022-11-17T16:59:12.892Z,898.42
2022-11-17T17:01:39.843Z,895.55
2022-11-17T17:04:09.328Z,894.60
2022-11-17T17:06:41.911Z,895.00
2022-11-17T17:09:10.673Z,889.55
2022-11-17T17:11:38.201Z,899.33
2022-11-17T17:14:08.251Z,899.20
2022-11-17T17:16:36.387Z,904.60
2022-11-17T17:19:05.529Z,899.50
2022-11-17T17:21:33.316Z,898.28
2022-11-17T17:24:00.479Z,899.05
2022-11-17T17:26:29.333Z,888.50
2022-11-17T17:28:58.275Z,893.03
2022-11-17T17:31:26.468Z,902.10
2022-11-17T17:33:54.800Z,911.92
2022-11-17T17:36:24.143Z,899.10
2022-11-17T17:38:55.898Z,903.47
2022-11-17T17:41:27.364Z,902.00
2022-11-17T17:43:59.874Z,907.05
2022-11-17T17:46:29.669Z,904.57
2022-11-17T17:48:57.277Z,902.72
2022-11-17T17:51:26.274Z,902.00
2022-11-17T17:53:55.716Z,899.75
2022-11-17T17:56:23.545Z,908.85
2022-11-17T17:58:53.692Z,901.20
2022-11-17T18:01:24.350Z,901.95
2022-11-17T18:03:53.686Z,900.83
2022-11-17T18:06:22.171Z,902.42
2022-11-17T18:08:50.436Z,898.92
2022-11-17T18:11:19.472Z,897.35
2022-11-17T18:13:51.010Z,906.80
2022-11-17T18:16:21.535Z,905.80
2022-11-17T18:18:49.031Z,907.92
2022-11-17T18:21:18.584Z,902.22
2022-11-17T18:23:45.882Z,906.67
2022-11-17T18:26:19.335Z,904.53
2022-11-17T18:29:00.099Z,901.33
2022-11-17T18:31:29.627Z,897.70
2022-11-17T18:33:59.196Z,908.38
2022-11-17T18:36:26.927Z,900.45
2022-11-17T18:38:54.409Z,906.07
2022-11-17T18:41:22.199Z,907.33
2022-11-17T18:43:49.360Z,907.33
2022-11-17T18:46:21.864Z,904.85
2022-11-17T18:48:53.395Z,906.23
2022-11-17T18:51:22.605Z,901.17
2022-11-17T18:53:51.434Z,908.58
2022-11-17T18:56:23.071Z,906.72
2022-11-17T18:58:50.199Z,907.00
2022-11-17T19:01:22.287Z,904.63
2022-11-17T19:03:52.239Z,906.17
2022-11-17T19:06:21.173Z,900.50
2022-11-17T19:08:48.197Z,900.10
2022-11-17T19:11:16.347Z,903.40
2022-11-17T19:13:43.882Z,898.15
2022-11-17T19:16:19.128Z,900.03
2022-11-17T19:18:48.447Z,900.90
2022-11-17T19:21:25.470Z,896.22
2022-11-17T19:23:53.315Z,897.42
2022-11-17T19:26:25.924Z,898.43
2022-11-17T19:28:56.865Z,900.47
2022-11-17T19:31:24.191Z,899.50
2022-11-17T19:33:51.188Z,902.72
2022-11-17T19:36:23.767Z,898.93
2022-11-17T19:38:52.533Z,898.88
2022-11-17T19:41:21.917Z,898.30
2022-11-17T19:43:51.747Z,901.10
2022-11-17T19:46:18.565Z,903.05
2022-11-17T19:48:45.687Z,898.22
2022-11-17T19:51:24.215Z,897.50
2022-11-17T19:53:56.364Z,903.47
2022-11-17T19:56:24.720Z,902.78
2022-11-17T19:58:52.404Z,902.22
2022-11-17T20:01:27.886Z,902.17
2022-11-17T20:03:56.389Z,901.90
2022-11-17T20:06:27.139Z,903.60
2022-11-17T20:08:55.199Z,899.20
2022-11-17T20:11:24.814Z,896.13
2022-11-17T20:13:51.624Z,897.47
2022-11-17T20:16:21.369Z,896.45
2022-11-17T20:18:56.040Z,903.00
2022-11-17T20:21:23.886Z,891.42
2022-11-17T20:23:51.116Z,895.08
2022-11-17T20:26:20.880Z,898.15
2022-11-17T20:28:48.364Z,896.10
2022-11-17T20:31:20.937Z,897.17
2022-11-17T20:33:48.917Z,896.42
2022-11-17T20:36:18.942Z,894.83
2022-11-17T20:38:55.952Z,889.33
2022-11-17T20:41:23.941Z,893.83
2022-11-17T20:43:52.724Z,898.03
2022-11-17T20:46:20.335Z,901.25
2022-11-17T20:48:48.036Z,895.83
2022-11-17T20:51:17.418Z,897.53
2022-11-17T20:53:44.553Z,895.92
2022-11-17T20:56:13.054Z,898.17
2022-11-17T20:58:40.357Z,895.17
2022-11-17T21:01:11.489Z,892.00
2022-11-17T21:03:38.633Z,891.80
2022-11-17T21:06:06.367Z,899.63
2022-11-17T21:08:35.756Z,899.43
2022-11-17T21:11:08.407Z,905.78
2022-11-17T21:13:36.298Z,904.72
2022-11-17T21:16:11.330Z,903.88
2022-11-17T21:18:44.143Z,899.08
2022-11-17T21:21:11.461Z,903.65
2022-11-17T21:23:39.792Z,901.80
2022-11-17T21:26:08.328Z,903.33
2022-11-17T21:28:36.863Z,897.38
2022-11-17T21:31:10.337Z,902.60
2022-11-17T21:33:37.657Z,898.92
2022-11-17T21:36:07.059Z,894.08
2022-11-17T21:38:34.079Z,900.10
2022-11-17T21:41:05.491Z,898.78
2022-11-17T21:43:32.486Z,901.17
2022-11-17T21:46:22.424Z,896.22
2022-11-17T21:48:50.299Z,897.85
2022-11-17T21:51:33.179Z,899.53
2022-11-17T21:54:02.289Z,895.20
2022-11-17T21:56:29.850Z,892.55
2022-11-17T21:58:57.920Z,892.35
2022-11-17T22:01:25.194Z,895.30
2022-11-17T22:03:52.149Z,892.60
2022-11-17T22:06:21.688Z,900.08
2022-11-17T22:08:49.222Z,894.97
2022-11-17T22:11:35.085Z,897.05
2022-11-17T22:14:15.136Z,898.03
2022-11-17T22:16:46.763Z,897.10
2022-11-17T22:19:15.929Z,894.47
2022-11-17T22:21:44.131Z,901.80
2022-11-17T22:24:12.289Z,896.95
2022-11-17T22:26:41.155Z,899.72
2022-11-17T22:29:13.709Z,900.47
2022-11-17T22:31:41.030Z,917.63
2022-11-17T22:34:07.877Z,911.47
2022-11-17T22:36:34.745Z,917.28
2022-11-17T22:39:01.588Z,922.22
2022-11-17T22:41:28.436Z,921.80
2022-11-17T22:43:56.968Z,921.10
2022-11-17T22:46:26.570Z,927.63
2022-11-17T22:48:53.662Z,929.15
2022-11-17T22:51:39.811Z,920.67
2022-11-17T22:54:07.901Z,914.75
2022-11-17T22:56:35.068Z,941.05
2022-11-17T22:59:01.788Z,920.65
2022-11-17T23:01:28.927Z,910.37
2022-11-17T23:03:55.833Z,908.80
2022-11-17T23:06:24.056Z,912.33
2022-11-17T23:08:51.196Z,902.28
2022-11-17T23:14:10.411Z,908.13
2022-11-17T23:16:37.951Z,920.00
2022-11-17T23:19:05.596Z,917.00
2022-11-17T23:21:32.524Z,923.60
2022-11-17T23:23:59.343Z,919.97
2022-11-17T23:26:26.129Z,919.10
2022-11-17T23:28:52.951Z,907.60
2022-11-17T23:31:20.394Z,904.67
2022-11-17T23:33:47.839Z,912.00
2022-11-17T23:36:20.348Z,912.38
2022-11-17T23:38:48.477Z,913.08
2022-11-17T23:41:17.687Z,910.22
2022-11-17T23:43:44.976Z,921.03
2022-11-17T23:46:14.989Z,912.55
2022-11-17T23:48:42.418Z,911.28
2022-11-17T23:51:12.401Z,921.10
2022-11-17T23:53:39.343Z,913.35
2022-11-17T23:56:06.567Z,922.88
2022-11-17T23:58:33.547Z,915.55
